Time;durP1;ratioP1;P1;durP2;ratioP2;P2;SDS_P1;SDS_P2;PMS_P1;PMS_P2;Temp;Humidity;BMP_temperature;BMP_pressure;BME280_temperature;BME280_humidity;BME280_pressure;Samples;Min_cycle;Max_cycle;Signal;HPM_P1;HPM_P2
2021/05/25 00:01:23;;;;;;;2.77;1.37;;;;;;;19.64;44.79;99958.53;2244471;88;25707;-81
2021/05/25 00:04:44;;;;;;;4.05;1.67;;;;;;;19.61;44.91;99945.34;2245768;87;25632;-81
2021/05/25 00:08:05;;;;;;;1.32;1.22;;;;;;;19.59;45.04;99954.19;2249580;87;25526;-81
2021/05/25 00:11:25;;;;;;;2.45;1.20;;;;;;;19.62;44.96;99947.97;2236931;87;25512;-77
2021/05/25 00:14:46;;;;;;;3.25;1.32;;;;;;;19.63;45.05;99941.80;2242535;87;29545;-81
2021/05/25 00:18:07;;;;;;;3.55;1.10;;;;;;;19.65;45.02;99932.53;2244430;87;25535;-79
2021/05/25 00:21:28;;;;;;;9.28;1.75;;;;;;;19.66;45.02;99927.20;2274549;85;25674;-73
2021/05/25 00:24:51;;;;;;;1.35;1.07;;;;;;;19.66;45.12;99919.72;2278897;86;30750;-81
2021/05/25 00:28:12;;;;;;;3.08;1.20;;;;;;;19.67;45.18;99914.38;2277771;86;25690;-80
2021/05/25 00:31:33;;;;;;;2.37;1.32;;;;;;;19.69;45.14;99915.69;2286990;86;25369;-80
2021/05/25 00:34:54;;;;;;;5.20;1.60;;;;;;;19.69;45.16;99922.30;2280790;85;25689;-79
2021/05/25 00:38:15;;;;;;;4.87;1.30;;;;;;;19.69;45.20;99925.81;2423894;79;30707;-80
2021/05/25 00:41:36;;;;;;;2.33;1.22;;;;;;;19.66;45.16;99923.23;2427820;79;30763;-80
2021/05/25 00:44:57;;;;;;;2.87;1.50;;;;;;;19.63;45.16;99917.10;2423523;81;25623;-79
2021/05/25 00:48:27;;;;;;;2.22;1.30;;;;;;;19.62;45.33;99917.56;2429750;79;30678;-72
2021/05/25 00:51:56;;;;;;;;;;;;;;;19.63;45.37;99919.33;2426556;81;25512;-79
2021/05/25 00:55:23;;;;;;;2.25;1.30;;;;;;;19.61;45.61;99922.44;2401384;80;25419;-78
2021/05/25 00:58:45;;;;;;;2.62;1.22;;;;;;;19.57;45.63;99924.70;2403474;81;25453;-74
2021/05/25 01:02:06;;;;;;;3.85;1.42;;;;;;;19.57;45.56;99920.73;2408792;81;25489;-79
2021/05/25 01:05:27;;;;;;;1.70;1.00;;;;;;;19.57;45.74;99910.16;2435063;80;31170;-76
2021/05/25 01:08:49;;;;;;;1.47;1.00;;;;;;;19.61;45.71;99907.89;2417256;80;26029;-80
2021/05/25 01:12:13;;;;;;;5.33;1.40;;;;;;;19.63;45.69;99910.49;2396761;81;25632;-77
2021/05/25 01:15:35;;;;;;;2.77;1.42;;;;;;;19.61;45.74;99907.00;2396903;81;25459;-76
2021/05/25 01:18:58;;;;;;;3.90;1.07;;;;;;;19.60;45.86;99906.12;2426151;76;25596;-71
2021/05/25 01:22:22;;;;;;;1.35;1.07;;;;;;;19.58;45.92;99913.25;2426927;81;25505;-72
2021/05/25 01:25:49;;;;;;;2.83;1.57;;;;;;;19.57;46.04;99912.38;2412977;79;25434;-80
2021/05/25 01:29:10;;;;;;;1.62;1.30;;;;;;;19.56;46.14;99907.11;2415370;80;25189;-78
2021/05/25 01:32:30;;;;;;;8.30;3.08;;;;;;;19.59;46.10;99897.79;2396459;81;30770;-80
2021/05/25 01:35:52;;;;;;;3.65;1.10;;;;;;;19.58;46.23;99885.48;2397325;81;31171;-80
2021/05/25 01:39:16;;;;;;;4.87;1.35;;;;;;;19.56;46.31;99869.63;2397055;81;25378;-79
2021/05/25 01:42:40;;;;;;;5.80;1.30;;;;;;;19.54;46.55;99841.47;2406075;81;25459;-79
2021/05/25 01:46:02;;;;;;;3.00;1.37;;;;;;;19.53;46.68;99818.59;2419275;79;25253;-79
2021/05/25 01:49:23;;;;;;;2.47;1.62;;;;;;;19.45;46.92;99809.98;2408056;80;25719;-79
2021/05/25 01:52:58;;;;;;;3.42;1.60;;;;;;;19.41;47.15;99817.56;2415375;80;25415;-70
2021/05/25 01:56:18;;;;;;;1.35;1.00;;;;;;;19.37;47.35;99818.50;2415565;81;25233;-80
2021/05/25 01:59:39;;;;;;;4.92;1.50;;;;;;;19.37;47.53;99807.93;2421659;79;25234;-80
2021/05/25 02:03:01;;;;;;;6.72;2.00;;;;;;;19.34;47.70;99791.25;2422819;80;30927;-78
2021/05/25 02:06:22;;;;;;;2.87;1.80;;;;;;;19.34;47.76;99787.75;2418101;79;25529;-76
2021/05/25 02:09:43;;;;;;;4.22;1.42;;;;;;;19.30;48.02;99801.48;2427475;79;30838;-72
2021/05/25 02:13:10;;;;;;;2.83;1.30;;;;;;;19.26;48.23;99816.09;2421641;79;25233;-80
2021/05/25 02:16:33;;;;;;;3.40;1.20;;;;;;;19.20;48.46;99828.97;2425989;81;25505;-78
2021/05/25 02:19:54;;;;;;;2.95;1.10;;;;;;;19.18;48.63;99829.92;2438501;80;26102;-75
2021/05/25 02:23:15;;;;;;;3.52;1.45;;;;;;;19.11;48.91;99832.69;2422900;80;30829;-81
2021/05/25 02:26:36;;;;;;;4.92;1.50;;;;;;;19.11;48.91;99832.69;2412918;80;25489;-80
2021/05/25 02:30:00;;;;;;;1.47;1.17;;;;;;;19.07;49.46;99825.73;2414380;81;30804;-70
2021/05/25 02:33:23;;;;;;;2.17;1.37;;;;;;;19.04;49.78;99816.55;2435974;80;25190;-80
2021/05/25 02:36:44;;;;;;;2.52;1.30;;;;;;;18.99;50.04;99821.48;2430834;79;25564;-77
2021/05/25 02:40:11;;;;;;;3.83;1.47;;;;;;;18.94;50.30;99829.52;2421385;81;30807;-81
2021/05/25 02:43:31;;;;;;;5.12;1.20;;;;;;;18.91;50.63;99833.98;2419874;79;25425;-79
2021/05/25 02:46:52;;;;;;;2.87;1.50;;;;;;;18.84;51.00;99820.03;2425243;81;30829;-76
2021/05/25 02:50:14;;;;;;;1.80;1.35;;;;;;;18.77;51.45;99810.03;2434151;79;31363;-79
2021/05/25 02:53:37;;;;;;;2.62;1.72;;;;;;;18.43;51.78;99749.47;2425869;79;25395;-80
2021/05/25 02:56:58;;;;;;;5.08;1.25;;;;;;;18.64;52.11;99797.92;2398521;82;25446;-79
2021/05/25 03:00:38;;;;;;;2.17;1.17;;;;;;;18.62;52.39;99799.25;2396889;81;30924;-78
2021/05/25 03:03:58;;;;;;;2.58;1.52;;;;;;;18.58;52.69;99791.43;2290688;85;25610;-75
2021/05/25 03:07:24;;;;;;;2.52;1.60;;;;;;;18.50;52.95;99785.44;2303004;84;31158;-79
2021/05/25 03:10:48;;;;;;;1.80;1.30;;;;;;;18.47;53.37;99788.13;2302852;84;25654;-78
2021/05/25 03:14:09;;;;;;;2.95;0.80;;;;;;;18.43;53.54;99779.39;2292815;84;25620;-79
2021/05/25 03:17:31;;;;;;;6.67;1.22;;;;;;;18.39;53.82;99774.63;2287512;85;25603;-80
2021/05/25 03:20:52;;;;;;;2.92;1.45;;;;;;;18.36;54.03;99761.94;2302801;84;30907;-79
2021/05/25 03:24:16;;;;;;;2.17;1.30;;;;;;;18.35;54.31;99749.62;2330193;84;29518;-81
2021/05/25 03:27:39;;;;;;;1.15;0.80;;;;;;;18.31;54.48;99751.44;2336699;83;25595;-81
2021/05/25 03:31:06;;;;;;;2.50;1.30;;;;;;;18.29;54.61;99750.63;2303378;84;25357;-80
2021/05/25 03:34:27;;;;;;;2.47;0.95;;;;;;;18.29;54.79;99761.17;2316604;83;25467;-80
2021/05/25 03:37:50;;;;;;;5.50;1.20;;;;;;;18.28;54.94;99769.10;2330302;83;25247;-80
2021/05/25 03:41:11;;;;;;;1.62;1.02;;;;;;;18.26;55.22;99763.87;2366754;80;25726;-71
2021/05/25 03:44:35;;;;;;;1.98;1.32;;;;;;;18.25;55.30;99773.11;2424397;80;30710;-79
2021/05/25 03:47:55;;;;;;;4.12;1.20;;;;;;;18.24;55.49;99766.10;2418454;81;25248;-72
2021/05/25 03:51:16;;;;;;;2.45;1.15;;;;;;;18.22;55.53;99758.20;2420139;81;25459;-70
2021/05/25 03:54:43;;;;;;;1.77;1.17;;;;;;;18.19;55.70;99758.28;2416948;80;30953;-84
2021/05/25 04:01:44;;;;;;;2.42;1.20;;;;;;;18.20;55.97;99752.55;2419891;80;25517;-75
